Time;durP1;ratioP1;P1;durP2;ratioP2;P2;SDS_P1;SDS_P2;PMS_P1;PMS_P2;Temp;Humidity;BMP_temperature;BMP_pressure;BME280_temperature;BME280_humidity;BME280_pressure;Samples;Min_cycle;Max_cycle;Signal;HPM_P1;HPM_P2
2022/01/01 00:02:17;;;;;;;8.75;8.35;;;;;;;2.01;100.00;100615.13;4973769;28;20118;-76
2022/01/01 00:04:43;;;;;;;8.30;7.90;;;;;;;2.01;100.00;100632.59;4975631;28;20058;-77
2022/01/01 00:07:12;;;;;;;9.18;8.68;;;;;;;2.05;100.00;100629.63;4971655;28;20027;-77
2022/01/01 00:09:38;;;;;;;8.40;8.00;;;;;;;2.11;100.00;100610.00;4969572;28;20027;-77
2022/01/01 00:12:04;;;;;;;8.60;8.20;;;;;;;2.22;100.00;100607.41;4973904;28;20034;-77
2022/01/01 00:14:30;;;;;;;10.38;9.77;;;;;;;2.27;100.00;100599.19;4973758;28;20042;-76
2022/01/01 00:16:56;;;;;;;8.68;8.27;;;;;;;2.36;100.00;100604.53;4974024;28;20125;-77
2022/01/01 00:19:21;;;;;;;8.85;8.45;;;;;;;2.39;100.00;100598.22;4973882;28;20121;-77
2022/01/01 00:21:47;;;;;;;8.80;8.40;;;;;;;2.48;100.00;100593.09;4966658;28;20040;-77
2022/01/01 00:24:12;;;;;;;9.02;8.57;;;;;;;2.48;100.00;100584.41;4969615;28;20033;-77
2022/01/01 00:26:38;;;;;;;8.38;7.97;;;;;;;2.51;100.00;100592.03;4969768;28;20050;-75
2022/01/01 00:29:04;;;;;;;8.50;8.10;;;;;;;2.51;100.00;100593.81;4974806;28;20102;-75
2022/01/01 00:31:30;;;;;;;8.48;8.07;;;;;;;2.52;100.00;100575.38;4973659;28;20114;-75
2022/01/01 00:33:55;;;;;;;7.93;7.57;;;;;;;2.61;100.00;100589.50;4973877;28;20110;-77
2022/01/01 00:36:21;;;;;;;7.95;7.60;;;;;;;2.71;100.00;100569.47;4962467;28;20027;-77
2022/01/01 00:38:46;;;;;;;8.70;8.30;;;;;;;2.81;100.00;100578.28;4969226;28;20027;-77
2022/01/01 00:41:12;;;;;;;8.30;7.90;;;;;;;2.97;100.00;100580.47;4973170;28;20396;-77
2022/01/01 00:43:38;;;;;;;8.20;7.80;;;;;;;2.99;100.00;100583.81;4973412;28;20049;-78
2022/01/01 00:46:04;;;;;;;8.30;7.90;;;;;;;3.05;100.00;100581.53;4973295;28;20480;-77
2022/01/01 00:48:29;;;;;;;8.15;7.75;;;;;;;3.19;100.00;100577.78;4974687;28;20118;-77
2022/01/01 00:50:56;;;;;;;8.10;7.70;;;;;;;3.22;100.00;100574.06;4974519;28;20039;-77
2022/01/01 00:53:22;;;;;;;8.38;7.97;;;;;;;3.33;100.00;100561.75;4972940;28;20132;-77
2022/01/01 00:55:47;;;;;;;8.57;8.18;;;;;;;3.34;100.00;100552.09;4973098;28;20518;-77
2022/01/01 00:58:12;;;;;;;10.10;9.50;;;;;;;3.47;100.00;100575.50;4974106;28;20129;-77
2022/01/01 01:00:38;;;;;;;8.10;7.70;;;;;;;3.51;100.00;100569.84;4973131;28;20035;-77
2022/01/01 01:03:11;;;;;;;7.90;7.50;;;;;;;3.60;100.00;100573.53;4972993;28;20468;-76
2022/01/01 01:05:39;;;;;;;8.63;8.23;;;;;;;3.56;100.00;100577.34;4969339;28;20045;-77
2022/01/01 01:08:06;;;;;;;8.40;8.00;;;;;;;3.56;100.00;100569.47;4972983;28;20046;-77
2022/01/01 01:10:32;;;;;;;8.30;7.90;;;;;;;3.59;100.00;100570.03;4972603;28;20031;-77
2022/01/01 01:12:57;;;;;;;8.00;7.60;;;;;;;3.60;100.00;100570.91;4972875;28;20378;-76
2022/01/01 01:15:24;;;;;;;8.10;7.70;;;;;;;3.63;100.00;100578.50;4972856;28;20568;-78
2022/01/01 01:17:51;;;;;;;8.52;8.13;;;;;;;3.63;100.00;100581.13;4967515;28;20453;-77
2022/01/01 01:20:18;;;;;;;8.43;8.02;;;;;;;3.61;100.00;100585.69;4970294;28;20035;-77
2022/01/01 01:22:43;;;;;;;8.40;8.00;;;;;;;3.56;100.00;100580.81;4960606;28;20041;-77
2022/01/01 01:25:10;;;;;;;7.85;7.55;;;;;;;3.54;100.00;100574.03;4972864;28;20107;-77
2022/01/01 01:27:37;;;;;;;8.70;8.30;;;;;;;3.55;100.00;100571.28;4972633;28;20499;-78
2022/01/01 01:30:09;;;;;;;8.20;7.80;;;;;;;3.48;100.00;100566.66;4972678;28;20031;-77
2022/01/01 01:32:35;;;;;;;8.70;8.30;;;;;;;3.45;100.00;100561.66;4961774;28;20039;-78
2022/01/01 01:35:01;;;;;;;8.52;8.13;;;;;;;3.44;100.00;100555.59;4971810;28;20027;-77
2022/01/01 01:37:28;;;;;;;8.43;8.02;;;;;;;3.55;100.00;100552.91;4973381;28;20030;-78
2022/01/01 01:39:55;;;;;;;8.57;8.18;;;;;;;3.62;100.00;100565.53;4973968;28;20031;-77
2022/01/01 01:42:21;;;;;;;8.18;7.78;;;;;;;3.58;100.00;100560.50;4972267;28;20038;-77
2022/01/01 01:44:48;;;;;;;8.70;8.30;;;;;;;3.68;100.00;100575.50;4972313;28;20042;-77
2022/01/01 01:47:18;;;;;;;8.30;7.90;;;;;;;3.59;100.00;100570.03;4971928;28;20397;-77
2022/01/01 01:49:44;;;;;;;8.25;7.85;;;;;;;3.64;100.00;100569.66;4972537;28;20038;-77
2022/01/01 01:52:11;;;;;;;8.27;7.88;;;;;;;3.67;100.00;100564.16;4972172;28;20042;-77
2022/01/01 01:54:37;;;;;;;8.65;8.25;;;;;;;3.75;100.00;100576.66;4971816;28;20050;-77
2022/01/01 01:57:03;;;;;;;8.40;8.00;;;;;;;3.69;100.00;100564.03;4973467;28;20037;-78
2022/01/01 01:59:29;;;;;;;8.88;8.48;;;;;;;3.68;100.00;100557.13;4972550;28;20146;-77
2022/01/01 02:01:55;;;;;;;8.82;8.43;;;;;;;3.65;100.00;100537.22;4968640;28;20038;-78
2022/01/01 02:04:20;;;;;;;8.50;8.10;;;;;;;3.70;100.00;100532.44;4970806;28;20083;-77
2022/01/01 02:06:45;;;;;;;8.43;8.02;;;;;;;3.71;100.00;100538.50;4973155;28;20027;-77
2022/01/01 02:09:13;;;;;;;9.18;8.68;;;;;;;3.73;100.00;100537.41;4972047;28;20167;-77
2022/01/01 02:11:39;;;;;;;8.50;8.10;;;;;;;3.79;100.00;100533.44;4972083;28;20041;-78
2022/01/01 02:14:14;;;;;;;9.43;8.93;;;;;;;3.81;100.00;100527.06;4972248;28;20031;-77
2022/01/01 02:19:27;;;;;;;8.23;7.83;;;;;;;3.69;100.00;100530.78;4972014;28;20396;-77
2022/01/01 02:21:55;;;;;;;8.98;8.52;;;;;;;3.67;100.00;100524.78;4972668;28;20285;-79
2022/01/01 02:24:21;;;;;;;9.05;8.60;;;;;;;3.82;100.00;100530.56;4973464;28;20027;-76
2022/01/01 02:26:47;;;;;;;9.30;8.80;;;;;;;3.87;100.00;100518.69;4973267;28;20097;-78
2022/01/01 02:29:12;;;;;;;9.13;8.63;;;;;;;3.88;100.00;100520.34;4960076;28;20028;-78
2022/01/01 02:31:38;;;;;;;8.55;8.15;;;;;;;3.86;100.00;100506.53;4974190;28;20022;-77
2022/01/01 02:34:05;;;;;;;9.13;8.68;;;;;;;3.93;100.00;100514.72;4976238;28;20031;-79
2022/01/01 02:36:43;;;;;;;9.13;8.68;;;;;;;3.85;100.00;100496.19;4976105;28;20033;-78
2022/01/01 02:39:19;;;;;;;8.75;8.35;;;;;;;3.93;100.00;100503.38;4958883;28;20154;-78
2022/01/01 02:41:47;;;;;;;9.05;8.63;;;;;;;3.63;100.00;100494.56;4975376;28;20491;-77
2022/01/01 02:44:13;;;;;;;8.40;8.00;;;;;;;3.42;100.00;100493.75;4975645;28;20034;-78
2022/01/01 02:46:39;;;;;;;8.63;8.23;;;;;;;3.50;100.00;100492.13;4975985;28;20027;-78
2022/01/01 02:49:05;;;;;;;8.60;8.20;;;;;;;3.45;100.00;100486.47;4975309;28;20357;-79
2022/01/01 02:51:30;;;;;;;9.20;8.70;;;;;;;3.28;100.00;100481.81;4975284;28;20037;-78
2022/01/01 02:53:56;;;;;;;8.40;8.00;;;;;;;3.32;100.00;100477.97;4975166;28;20054;-77
2022/01/01 02:56:23;;;;;;;8.70;8.30;;;;;;;3.22;100.00;100482.31;4974510;28;20038;-79
2022/01/01 02:58:48;;;;;;;8.55;8.15;;;;;;;3.03;100.00;100475.16;4976693;28;20567;-78
2022/01/01 03:01:14;;;;;;;8.60;8.20;;;;;;;3.03;100.00;100465.50;4976501;28;20042;-77
2022/01/01 03:03:40;;;;;;;7.95;7.65;;;;;;;2.94;100.00;100470.69;4975258;28;20767;-78
2022/01/01 03:06:05;;;;;;;9.10;8.60;;;;;;;2.78;100.00;100452.75;4976359;28;20039;-81
2022/01/01 03:08:31;;;;;;;8.90;8.50;;;;;;;2.82;100.00;100458.59;4974212;28;20021;-79
2022/01/01 03:10:56;;;;;;;8.88;8.48;;;;;;;2.88;100.00;100453.69;4968586;28;20515;-78
2022/01/01 03:13:21;;;;;;;8.95;8.55;;;;;;;2.82;100.00;100454.19;4975044;28;20039;-79
2022/01/01 03:15:47;;;;;;;8.70;8.30;;;;;;;2.83;100.00;100444.53;4974938;28;20111;-79
2022/01/01 03:18:13;;;;;;;9.23;8.73;;;;;;;2.84;100.00;100441.78;4974902;28;20034;-79
2022/01/01 03:20:39;;;;;;;9.50;9.00;;;;;;;2.84;100.00;100446.19;4974985;28;20078;-78
2022/01/01 03:23:04;;;;;;;8.75;8.35;;;;;;;2.61;100.00;100443.69;4976572;28;20117;-79
2022/01/01 03:25:30;;;;;;;8.85;8.45;;;;;;;2.68;100.00;100438.78;4962491;28;20570;-79
2022/01/01 03:27:56;;;;;;;8.65;8.25;;;;;;;2.75;100.00;100451.25;4974092;28;20117;-80
2022/01/01 03:30:21;;;;;;;8.68;8.27;;;;;;;2.79;100.00;100454.41;4974130;28;20082;-79
2022/01/01 03:32:47;;;;;;;9.48;8.98;;;;;;;2.92;100.00;100452.47;4975979;28;20130;-80
2022/01/01 03:35:13;;;;;;;8.55;8.15;;;;;;;2.95;100.00;100440.91;4976231;28;20034;-79
2022/01/01 03:37:40;;;;;;;8.98;8.57;;;;;;;2.77;100.00;100438.00;4975140;28;20038;-81
2022/01/01 03:40:07;;;;;;;9.63;9.13;;;;;;;2.79;100.00;100441.31;4957008;28;20139;-77
2022/01/01 03:42:32;;;;;;;10.13;9.52;;;;;;;2.65;100.00;100436.41;4972952;28;20485;-79
2022/01/01 03:44:58;;;;;;;9.65;9.15;;;;;;;3.03;100.00;100441.09;4974782;28;20089;-81
2022/01/01 03:47:23;;;;;;;8.85;8.45;;;;;;;2.81;100.00;100436.81;4973760;28;20019;-79
2022/01/01 03:49:49;;;;;;;8.60;8.20;;;;;;;2.93;100.00;100437.56;4974874;28;20034;-78
2022/01/01 03:52:15;;;;;;;8.93;8.48;;;;;;;2.81;100.00;100430.75;4973459;28;20027;-79
2022/01/01 03:54:42;;;;;;;8.60;8.20;;;;;;;2.68;100.00;100428.31;4974181;28;20054;-80
2022/01/01 03:57:07;;;;;;;9.65;9.15;;;;;;;2.65;100.00;100433.81;4974905;28;20027;-80
2022/01/01 03:59:33;;;;;;;8.73;8.32;;;;;;;2.75;100.00;100427.66;4974402;28;20034;-80
2022/01/01 04:01:59;;;;;;;8.85;8.45;;;;;;;2.64;100.00;100426.88;4975432;28;20089;-80
2022/01/01 04:04:25;;;;;;;8.25;7.85;;;;;;;2.72;100.00;100430.56;4974701;28;20114;-80
2022/01/01 04:06:54;;;;;;;8.75;8.35;;;;;;;2.72;100.00;100422.69;4974406;28;20556;-81
2022/01/01 04:09:19;;;;;;;8.70;8.30;;;;;;;2.62;100.00;100415.72;4974144;28;20026;-78
2022/01/01 04:11:45;;;;;;;8.75;8.35;;;;;;;2.69;100.00;100435.19;4973997;28;20030;-79
2022/01/01 04:14:13;;;;;;;8.32;7.93;;;;;;;2.67;100.00;100430.09;4975244;28;20057;-80
2022/01/01 04:16:39;;;;;;;8.82;8.38;;;;;;;2.54;100.00;100432.03;4975795;28;20396;-79
2022/01/01 04:19:05;;;;;;;8.73;8.30;;;;;;;2.49;100.00;100436.81;4974230;28;20038;-80
2022/01/01 04:21:30;;;;;;;8.63;8.23;;;;;;;2.46;100.00;100435.28;4963483;28;20035;-80
2022/01/01 04:23:56;;;;;;;8.30;7.90;;;;;;;2.42;100.00;100438.28;4973805;28;20113;-78
2022/01/01 04:26:23;;;;;;;8.93;8.45;;;;;;;2.47;100.00;100441.34;4972052;28;20468;-78
2022/01/01 04:28:48;;;;;;;9.82;9.25;;;;;;;2.51;100.00;100445.41;4973594;28;20472;-79
2022/01/01 04:31:15;;;;;;;9.25;8.75;;;;;;;2.58;100.00;100440.50;4974697;28;20125;-80
2022/01/01 04:33:41;;;;;;;9.30;8.80;;;;;;;2.61;100.00;100451.53;4975112;28;20476;-79
2022/01/01 04:36:06;;;;;;;8.77;8.30;;;;;;;2.75;100.00;100453.88;4958713;28;20031;-78
2022/01/01 04:38:37;;;;;;;8.68;8.27;;;;;;;2.90;100.00;100457.00;4973544;28;20038;-79
2022/01/01 04:41:11;;;;;;;8.90;8.50;;;;;;;3.12;100.00;100444.72;4973448;28;20038;-78
2022/01/01 04:43:37;;;;;;;8.63;8.23;;;;;;;3.02;100.00;100444.69;4973213;28;20540;-81
2022/01/01 04:46:03;;;;;;;8.77;8.38;;;;;;;3.02;100.00;100453.38;4973485;28;20106;-79
2022/01/01 04:48:29;;;;;;;8.48;8.07;;;;;;;2.98;100.00;100451.13;4971958;28;20062;-80
2022/01/01 04:50:55;;;;;;;8.45;8.05;;;;;;;2.91;100.00;100445.56;4974678;28;20066;-79
2022/01/01 04:53:20;;;;;;;8.70;8.30;;;;;;;2.75;100.00;100447.78;4971642;28;20486;-79
2022/01/01 04:55:46;;;;;;;8.30;7.90;;;;;;;2.85;100.00;100448.69;4972841;28;20051;-80
2022/01/01 04:58:13;;;;;;;8.57;8.18;;;;;;;2.99;100.00;100453.63;4974510;28;20034;-82
2022/01/01 05:00:38;;;;;;;8.85;8.40;;;;;;;2.90;100.00;100451.75;4973116;28;20046;-81
2022/01/01 05:03:05;;;;;;;9.93;9.35;;;;;;;2.84;100.00;100444.41;4973920;28;20477;-80
2022/01/01 05:05:30;;;;;;;9.43;8.93;;;;;;;2.88;100.00;100445.00;4955675;28;20576;-79
2022/01/01 05:07:56;;;;;;;9.15;8.65;;;;;;;2.95;100.00;100446.97;4971393;28;20038;-79
2022/01/01 05:10:24;;;;;;;9.05;8.57;;;;;;;2.90;100.00;100422.94;4968119;28;20782;-80
2022/01/01 05:12:49;;;;;;;9.57;9.07;;;;;;;3.12;100.00;100432.47;4972892;28;20027;-81
2022/01/01 05:15:15;;;;;;;9.23;8.73;;;;;;;3.25;100.00;100437.50;4972980;28;20046;-80
2022/01/01 05:17:40;;;;;;;8.80;8.32;;;;;;;3.29;100.00;100431.03;4965576;28;20385;-79
2022/01/01 05:20:06;;;;;;;9.20;8.70;;;;;;;3.36;100.00;100436.59;4972716;28;20385;-79
2022/01/01 05:22:32;;;;;;;9.05;8.57;;;;;;;3.40;100.00;100441.44;4972974;28;20042;-80
2022/01/01 05:24:59;;;;;;;8.75;8.35;;;;;;;3.37;100.00;100449.56;4973936;28;20034;-79
2022/01/01 05:27:26;;;;;;;8.75;8.35;;;;;;;3.37;100.00;100449.56;4972925;28;20042;-79
2022/01/01 05:29:52;;;;;;;8.48;8.07;;;;;;;3.27;100.00;100456.56;4972675;28;20035;-79
2022/01/01 05:32:18;;;;;;;9.27;8.77;;;;;;;3.34;100.00;100455.06;4959861;28;20023;-79
2022/01/01 05:34:43;;;;;;;9.15;8.65;;;;;;;3.28;100.00;100452.97;4972599;28;20046;-78
2022/01/01 05:37:10;;;;;;;8.55;8.15;;;;;;;3.22;100.00;100440.38;4973854;28;20051;-78
2022/01/01 05:39:36;;;;;;;9.40;8.90;;;;;;;3.23;100.00;100453.38;4973849;28;20073;-79
2022/01/01 05:42:01;;;;;;;9.75;9.25;;;;;;;3.37;100.00;100456.59;4972495;28;20118;-79
2022/01/01 05:44:27;;;;;;;9.00;8.55;;;;;;;3.45;100.00;100470.75;4972997;28;20110;-78
2022/01/01 05:46:53;;;;;;;8.75;8.35;;;;;;;3.53;100.00;100467.47;4956376;28;20039;-78
2022/01/01 05:49:19;;;;;;;9.15;8.65;;;;;;;3.42;100.00;100472.78;4973809;28;20030;-79
2022/01/01 05:51:45;;;;;;;8.82;8.43;;;;;;;3.40;100.00;100466.84;4972281;28;20033;-79
2022/01/01 05:54:10;;;;;;;8.50;8.10;;;;;;;3.40;100.00;100470.28;4973651;28;20047;-78
2022/01/01 05:56:36;;;;;;;9.18;8.68;;;;;;;3.44;100.00;100476.09;4973227;28;20438;-79
2022/01/01 05:59:01;;;;;;;8.48;8.07;;;;;;;3.36;100.00;100470.66;4971197;28;20418;-78
2022/01/01 06:01:27;;;;;;;8.73;8.32;;;;;;;3.44;100.00;100479.53;4972952;28;20034;-79
2022/01/01 06:03:54;;;;;;;9.32;8.82;;;;;;;3.49;100.00;100484.41;4972056;28;20034;-79
2022/01/01 06:06:19;;;;;;;8.88;8.48;;;;;;;3.56;100.00;100494.25;4974906;28;20034;-79
2022/01/01 06:08:45;;;;;;;8.40;8.00;;;;;;;3.63;100.00;100485.84;4978693;28;20471;-79
2022/01/01 06:11:10;;;;;;;9.02;8.60;;;;;;;3.53;100.00;100489.28;4979863;28;20054;-79
2022/01/01 06:13:36;;;;;;;8.65;8.25;;;;;;;3.55;100.00;100503.09;4978190;28;20049;-79
2022/01/01 06:16:01;;;;;;;8.95;8.48;;;;;;;3.62;100.00;100498.16;4979651;28;20026;-79
2022/01/01 06:18:27;;;;;;;8.57;8.18;;;;;;;3.68;100.00;100502.03;4979677;28;20038;-79
2022/01/01 06:20:52;;;;;;;8.52;8.13;;;;;;;3.78;100.00;100500.28;4979851;28;20053;-78
2022/01/01 06:23:17;;;;;;;8.80;8.40;;;;;;;3.78;100.00;100505.53;4979755;28;20037;-79
2022/01/01 06:25:43;;;;;;;8.85;8.43;;;;;;;3.79;100.00;100502.78;4980235;28;20607;-78
2022/01/01 06:28:09;;;;;;;9.15;8.65;;;;;;;3.80;100.00;100512.31;4967063;28;20023;-78
2022/01/01 06:30:34;;;;;;;9.07;8.57;;;;;;;3.86;100.00;100513.56;4980046;28;20038;-79
2022/01/01 06:33:16;;;;;;;8.38;7.97;;;;;;;3.90;100.00;100515.00;4979098;28;20041;-79
2022/01/01 06:35:45;;;;;;;8.93;8.52;;;;;;;4.03;100.00;100507.69;4979365;28;20018;-80
2022/01/01 06:38:12;;;;;;;9.23;8.73;;;;;;;4.12;100.00;100527.09;4962429;28;20031;-81
2022/01/01 06:40:39;;;;;;;9.27;8.77;;;;;;;4.29;100.00;100523.00;4978629;28;20170;-78
2022/01/01 06:43:06;;;;;;;8.88;8.43;;;;;;;4.31;100.00;100526.31;4962768;28;20034;-78
2022/01/01 06:45:32;;;;;;;9.57;9.07;;;;;;;4.29;100.00;100523.00;4979314;28;20377;-78
2022/01/01 06:47:57;;;;;;;8.73;8.32;;;;;;;4.36;100.00;100542.50;4980229;28;20034;-78
2022/01/01 06:50:24;;;;;;;8.77;8.38;;;;;;;4.44;100.00;100543.47;4979334;28;20027;-79
2022/01/01 06:52:49;;;;;;;8.40;8.00;;;;;;;4.44;100.00;100555.78;4979590;28;20386;-78
2022/01/01 06:55:15;;;;;;;8.38;7.97;;;;;;;4.47;100.00;100560.75;4978807;28;20473;-80
2022/01/01 06:57:42;;;;;;;9.38;8.88;;;;;;;4.50;100.00;100559.69;4979261;28;20039;-78
2022/01/01 07:00:09;;;;;;;9.38;8.88;;;;;;;4.50;100.00;100564.94;4979548;28;20106;-79
2022/01/01 07:02:46;;;;;;;8.68;8.27;;;;;;;4.51;100.00;100564.78;4981184;28;20023;-79
2022/01/01 07:05:13;;;;;;;8.57;8.18;;;;;;;4.48;100.00;100572.09;4980930;28;20054;-80
2022/01/01 07:07:38;;;;;;;8.77;8.38;;;;;;;4.54;100.00;100572.38;4980288;28;20022;-78
2022/01/01 07:10:09;;;;;;;8.18;7.78;;;;;;;4.59;100.00;100580.72;4979056;28;20349;-78
2022/01/01 07:12:35;;;;;;;8.32;7.93;;;;;;;4.50;100.00;100588.56;4980860;28;20026;-79
2022/01/01 07:15:01;;;;;;;8.75;8.32;;;;;;;4.50;100.00;100576.25;4981305;28;20054;-78
2022/01/01 07:17:27;;;;;;;8.25;7.88;;;;;;;4.22;100.00;100566.50;4979309;28;20027;-80
2022/01/01 07:19:53;;;;;;;8.50;8.10;;;;;;;4.33;100.00;100566.38;4977926;28;20504;-80
2022/01/01 07:22:18;;;;;;;8.70;8.30;;;;;;;4.26;100.00;100560.00;4978466;28;20027;-80
2022/01/01 07:24:44;;;;;;;9.13;8.63;;;;;;;4.36;100.00;100566.13;4969194;28;20026;-78
2022/01/01 07:27:11;;;;;;;8.85;8.43;;;;;;;4.22;100.00;100566.50;4979096;28;20046;-78
2022/01/01 07:29:37;;;;;;;8.20;7.80;;;;;;;4.34;100.00;100570.69;4979113;28;20055;-77
2022/01/01 07:32:03;;;;;;;8.48;8.07;;;;;;;4.49;100.00;100581.66;4980444;28;20506;-80
2022/01/01 07:34:28;;;;;;;8.05;7.65;;;;;;;4.54;100.00;100572.38;4979030;28;20027;-78
2022/01/01 07:36:54;;;;;;;8.15;7.75;;;;;;;4.70;100.00;100585.00;4977765;28;20058;-79
2022/01/01 07:39:19;;;;;;;9.48;8.98;;;;;;;4.60;100.00;100584.16;4964054;28;20046;-78
2022/01/01 07:41:45;;;;;;;8.48;8.07;;;;;;;4.69;100.00;100586.78;4982431;28;20058;-78
2022/01/01 07:44:11;;;;;;;8.63;8.23;;;;;;;4.94;100.00;100582.00;4978872;28;20117;-77
2022/01/01 07:46:36;;;;;;;7.88;7.57;;;;;;;5.04;100.00;100600.41;4979588;28;20035;-77
2022/01/01 07:49:02;;;;;;;8.55;8.15;;;;;;;5.14;100.00;100598.63;4978932;28;20848;-79
2022/01/01 07:51:27;;;;;;;8.82;8.43;;;;;;;5.14;100.00;100606.50;4978751;28;20058;-79
2022/01/01 07:53:53;;;;;;;9.00;8.52;;;;;;;5.03;100.00;100604.03;4978066;28;20043;-79
2022/01/01 07:56:18;;;;;;;8.65;8.25;;;;;;;5.02;100.00;100608.44;4978133;28;20027;-78
2022/01/01 07:58:44;;;;;;;8.50;8.10;;;;;;;5.14;100.00;100604.72;4978899;28;20038;-79
2022/01/01 08:01:09;;;;;;;8.75;8.35;;;;;;;4.97;100.00;100597.50;4978662;28;20042;-79
2022/01/01 08:03:35;;;;;;;8.20;7.80;;;;;;;5.07;100.00;100608.88;4977418;28;20038;-79
2022/01/01 08:06:00;;;;;;;9.10;8.60;;;;;;;5.10;100.00;100602.50;4972413;28;20034;-79
2022/01/01 08:08:26;;;;;;;8.60;8.20;;;;;;;5.26;100.00;100610.66;4978068;28;20376;-78
2022/01/01 08:10:51;;;;;;;8.45;8.05;;;;;;;5.13;100.00;100610.09;4973640;28;20027;-79
2022/01/01 08:13:24;;;;;;;8.65;8.25;;;;;;;5.23;100.00;100611.78;4983630;28;20074;-78
2022/01/01 08:15:52;;;;;;;8.60;8.20;;;;;;;5.17;100.00;100616.75;4979718;28;20056;-79
2022/01/01 08:18:18;;;;;;;8.18;7.78;;;;;;;5.26;100.00;100629.09;4983437;28;20026;-80
2022/01/01 08:20:44;;;;;;;8.45;8.05;;;;;;;5.30;100.00;100637.53;4986413;28;20030;-76
2022/01/01 08:23:10;;;;;;;8.35;7.95;;;;;;;5.27;100.00;100641.25;4997232;28;20017;-76
2022/01/01 08:25:36;;;;;;;8.00;7.60;;;;;;;5.32;100.00;100644.31;4990275;28;20030;-77
2022/01/01 08:28:02;;;;;;;8.35;7.95;;;;;;;5.15;100.00;100645.84;4985732;28;20077;-82
2022/01/01 08:30:27;;;;;;;8.05;7.68;;;;;;;5.06;100.00;100644.00;4984727;28;20026;-79
2022/01/01 08:32:53;;;;;;;8.20;7.80;;;;;;;5.11;100.00;100644.44;4985004;28;20026;-77
2022/01/01 08:35:18;;;;;;;8.43;8.02;;;;;;;5.02;100.00;100649.69;4972687;28;20026;-77
2022/01/01 08:37:44;;;;;;;8.50;8.10;;;;;;;5.06;100.00;100644.00;4982907;28;20026;-76
2022/01/01 08:40:10;;;;;;;8.15;7.75;;;;;;;5.09;100.00;100641.13;4980121;28;20027;-77
2022/01/01 08:42:36;;;;;;;8.02;7.65;;;;;;;5.17;100.00;100654.41;4982396;28;20117;-77
2022/01/01 08:45:03;;;;;;;8.10;7.70;;;;;;;5.23;100.00;100645.16;4980442;28;20609;-78
2022/01/01 08:47:28;;;;;;;9.05;8.60;;;;;;;5.34;100.00;100644.16;4977309;28;20235;-80
2022/01/01 08:49:55;;;;;;;7.90;7.60;;;;;;;5.37;100.00;100639.47;4977414;28;20095;-78
2022/01/01 08:52:24;;;;;;;8.35;7.95;;;;;;;5.53;100.00;100641.56;4977483;28;20169;-78
2022/01/01 08:54:55;;;;;;;8.15;7.75;;;;;;;5.46;100.00;100643.06;4967786;28;20117;-80
2022/01/01 08:57:21;;;;;;;8.20;7.80;;;;;;;5.47;100.00;100642.09;4977142;28;20038;-77
2022/01/01 08:59:46;;;;;;;8.55;8.15;;;;;;;5.32;100.00;100643.50;4975809;28;20091;-78
2022/01/01 09:02:12;;;;;;;8.68;8.27;;;;;;;5.46;100.00;100640.44;4973902;28;20488;-80
2022/01/01 09:04:37;;;;;;;8.15;7.75;;;;;;;5.66;100.00;100639.47;4973493;28;20093;-79
2022/01/01 09:07:03;;;;;;;8.32;7.93;;;;;;;5.67;100.00;100627.13;4973524;28;20436;-79
2022/01/01 09:09:28;;;;;;;8.70;8.30;;;;;;;6.17;100.00;100617.22;4972886;28;20050;-80
2022/01/01 09:11:54;;;;;;;8.30;7.90;;;;;;;6.20;100.00;100631.91;4973498;28;20030;-80
2022/01/01 09:14:21;;;;;;;8.48;8.07;;;;;;;6.25;100.00;100632.31;4973169;28;20031;-79
2022/01/01 09:16:46;;;;;;;7.93;7.57;;;;;;;6.55;100.00;100639.94;4967549;28;20027;-82
2022/01/01 09:19:12;;;;;;;7.75;7.45;;;;;;;6.53;100.00;100638.41;4973353;28;20437;-79
2022/01/01 09:21:38;;;;;;;8.18;7.78;;;;;;;6.58;100.00;100644.09;4972931;28;20469;-78
2022/01/01 09:24:04;;;;;;;8.00;7.60;;;;;;;6.57;100.00;100647.69;4973028;28;20086;-80
2022/01/01 09:26:30;;;;;;;7.70;7.40;;;;;;;6.61;100.00;100644.63;4974361;28;20027;-79
2022/01/01 09:28:55;;;;;;;7.97;7.68;;;;;;;6.68;100.00;100641.38;4974662;28;20389;-81
2022/01/01 09:31:22;;;;;;;9.00;8.57;;;;;;;6.69;100.00;100637.81;4962931;28;20031;-77
2022/01/01 09:33:47;;;;;;;8.55;8.15;;;;;;;6.79;100.00;100633.28;4973211;28;20101;-79
2022/01/01 09:36:15;;;;;;;8.10;7.70;;;;;;;6.98;100.00;100638.47;4972687;28;20030;-80
2022/01/01 09:38:42;;;;;;;8.35;7.95;;;;;;;6.90;100.00;100649.75;4974950;28;20030;-79
2022/01/01 09:41:09;;;;;;;8.27;7.88;;;;;;;6.80;100.00;100641.06;4972354;28;20023;-81
2022/01/01 09:43:35;;;;;;;8.23;7.82;;;;;;;6.70;100.00;100645.56;4971485;28;20370;-82
2022/01/01 09:46:01;;;;;;;8.50;8.10;;;;;;;6.61;100.00;100649.06;4960334;28;20037;-81
2022/01/01 09:48:27;;;;;;;8.90;8.48;;;;;;;6.71;100.00;100647.22;4972925;28;20443;-83
2022/01/01 09:50:56;;;;;;;9.13;8.63;;;;;;;6.67;100.00;100651.09;4972159;28;20402;-79
2022/01/01 09:53:24;;;;;;;9.02;8.55;;;;;;;6.68;100.00;100647.50;4972278;28;20555;-80
2022/01/01 09:55:51;;;;;;;8.70;8.30;;;;;;;6.73;100.00;100647.06;4971835;28;20054;-79
2022/01/01 09:58:16;;;;;;;7.72;7.43;;;;;;;6.60;100.00;100626.31;4971209;28;20035;-78
2022/01/01 10:00:42;;;;;;;8.23;7.82;;;;;;;6.73;100.00;100632.06;4972229;28;20078;-78
2022/01/01 10:03:13;;;;;;;8.25;7.85;;;;;;;6.57;100.00;100618.69;4972391;28;20030;-81
2022/01/01 10:05:59;;;;;;;8.32;7.93;;;;;;;6.57;100.00;100634.53;4972238;28;20089;-81
2022/01/01 10:08:24;;;;;;;8.07;7.68;;;;;;;6.52;100.00;100631.47;4972495;28;20042;-81
2022/01/01 10:10:51;;;;;;;8.20;7.80;;;;;;;6.61;100.00;100631.47;4972597;28;20022;-81
2022/01/01 10:13:17;;;;;;;8.23;7.82;;;;;;;6.64;100.00;100633.78;4969171;28;20055;-77
2022/01/01 10:15:43;;;;;;;8.13;7.75;;;;;;;6.68;100.00;100629.03;4973518;28;20034;-78
2022/01/01 10:18:08;;;;;;;8.43;8.02;;;;;;;6.89;100.00;100640.16;4973647;28;20035;-77
2022/01/01 10:20:43;;;;;;;7.90;7.57;;;;;;;6.83;100.00;100632.88;4973408;28;20038;-80
2022/01/01 10:23:15;;;;;;;7.75;7.45;;;;;;;6.75;100.00;100634.56;4972483;28;20122;-80
2022/01/01 10:28:26;;;;;;;8.57;8.18;;;;;;;6.98;100.00;100638.47;4972517;28;20510;-80
2022/01/01 10:30:51;;;;;;;8.75;8.35;;;;;;;7.07;100.00;100645.47;4970974;28;20042;-78
2022/01/01 10:33:21;;;;;;;8.48;8.07;;;;;;;6.94;100.00;100639.72;4972286;28;20037;-80
2022/01/01 10:35:53;;;;;;;8.05;7.65;;;;;;;6.85;100.00;100638.81;4972460;28;20035;-79
2022/01/01 10:38:28;;;;;;;8.48;8.07;;;;;;;6.95;100.00;100644.03;4970093;28;20046;-78
2022/01/01 10:40:54;;;;;;;;;;;;;;;6.85;100.00;100645.91;4969672;28;20369;-80
2022/01/01 10:43:24;;;;;;;8.10;7.70;;;;;;;6.75;100.00;100634.56;4972123;28;19982;-77
2022/01/01 10:45:50;;;;;;;8.65;8.25;;;;;;;6.86;100.00;100637.81;4972053;28;20027;-79
2022/01/01 10:48:28;;;;;;;9.00;8.55;;;;;;;7.07;100.00;100639.38;4972107;28;20030;-79
2022/01/01 10:50:55;;;;;;;7.88;7.57;;;;;;;7.12;100.00;100637.09;4972440;28;20062;-79
2022/01/01 10:53:22;;;;;;;8.75;8.35;;;;;;;7.13;100.00;100644.88;4973433;28;20047;-78
2022/01/01 10:55:51;;;;;;;8.05;7.65;;;;;;;7.05;100.00;100641.31;4959814;28;20065;-79
2022/01/01 10:58:22;;;;;;;8.10;7.70;;;;;;;7.06;100.00;100635.91;4976444;28;20037;-78
2022/01/01 11:00:51;;;;;;;8.43;8.02;;;;;;;7.05;100.00;100636.88;4975599;28;20027;-81
2022/01/01 11:03:19;;;;;;;8.63;8.23;;;;;;;6.74;100.00;100631.09;4975139;28;20034;-79
2022/01/01 11:05:46;;;;;;;8.93;8.52;;;;;;;6.73;100.00;100639.16;4977408;28;20030;-78
2022/01/01 11:08:13;;;;;;;9.20;8.75;;;;;;;6.73;100.00;100642.63;4974382;28;20390;-80
2022/01/01 11:10:40;;;;;;;8.95;8.55;;;;;;;6.65;100.00;100635.44;4966590;28;20035;-78
2022/01/01 11:13:07;;;;;;;8.63;8.23;;;;;;;6.69;100.00;100640.44;4975806;28;20401;-77
2022/01/01 11:15:33;;;;;;;8.60;8.20;;;;;;;6.68;100.00;100642.22;4958750;28;20031;-80
2022/01/01 11:18:00;;;;;;;8.60;8.20;;;;;;;6.77;100.00;100645.81;4967115;28;20141;-83
2022/01/01 11:20:30;;;;;;;8.77;8.38;;;;;;;6.71;100.00;100641.13;4959562;28;20496;-80
2022/01/01 11:22:56;;;;;;;8.65;8.25;;;;;;;6.88;100.00;100642.94;4969596;28;20105;-81
2022/01/01 11:25:22;;;;;;;8.70;8.30;;;;;;;6.80;100.00;100648.13;4974068;28;20032;-77
2022/01/01 11:27:48;;;;;;;8.35;7.95;;;;;;;6.88;100.00;100640.31;4975201;28;20055;-77